createdAt,value
2022-09-16T00:01:53.551Z,96.42
2022-09-16T00:04:20.799Z,96.29
2022-09-16T00:06:47.610Z,96.46
2022-09-16T00:09:14.338Z,96.64
2022-09-16T00:11:41.118Z,96.63
2022-09-16T00:14:07.923Z,96.60
2022-09-16T00:16:34.789Z,96.72
2022-09-16T00:19:01.933Z,96.78
2022-09-16T00:21:30.262Z,96.92
2022-09-16T00:23:57.367Z,96.77
2022-09-16T00:26:24.246Z,96.81
2022-09-16T00:28:51.400Z,96.84
2022-09-16T00:31:18.610Z,97.09
2022-09-16T00:33:45.340Z,96.80
2022-09-16T00:36:17.361Z,96.75
2022-09-16T00:38:44.671Z,96.88
2022-09-16T00:41:19.994Z,96.95
2022-09-16T00:44:27.066Z,97.19
2022-09-16T00:46:55.108Z,96.97
2022-09-16T00:49:26.889Z,97.07
2022-09-16T00:51:59.830Z,97.00
2022-09-16T00:54:27.168Z,97.01
2022-09-16T00:56:58.173Z,96.85
2022-09-16T00:59:31.694Z,96.89
2022-09-16T01:02:03.307Z,97.04
2022-09-16T01:04:35.402Z,97.22
2022-09-16T01:07:02.292Z,97.14
2022-09-16T01:09:30.957Z,96.84
2022-09-16T01:11:57.757Z,96.66
2022-09-16T01:14:45.206Z,96.19
2022-09-16T01:17:33.396Z,96.50
2022-09-16T01:20:24.237Z,96.35
2022-09-16T01:23:06.839Z,96.12
2022-09-16T01:26:16.949Z,96.11
2022-09-16T01:29:02.128Z,95.84
2022-09-16T01:31:52.536Z,95.63
2022-09-16T01:34:39.418Z,95.52
2022-09-16T01:37:42.294Z,95.47
2022-09-16T01:40:23.686Z,95.59
2022-09-16T01:43:01.411Z,95.29
2022-09-16T01:45:41.015Z,95.21
2022-09-16T01:48:28.887Z,94.96
2022-09-16T01:51:01.669Z,94.72
2022-09-16T01:53:39.121Z,94.82
2022-09-16T01:56:13.684Z,94.72
2022-09-16T01:59:10.679Z,95.28
2022-09-16T02:01:53.359Z,95.29
2022-09-16T02:04:29.033Z,95.36
2022-09-16T02:06:58.263Z,95.18
2022-09-16T02:09:32.004Z,95.30
2022-09-16T02:12:05.683Z,95.06
2022-09-16T02:14:39.652Z,95.28
2022-09-16T02:17:16.488Z,95.06
2022-09-16T02:19:55.214Z,95.51
2022-09-16T02:22:32.633Z,95.61
2022-09-16T02:25:00.585Z,95.48
2022-09-16T02:27:29.922Z,95.76
2022-09-16T02:30:02.401Z,95.59
2022-09-16T02:32:31.824Z,95.84
2022-09-16T02:35:00.756Z,96.04
2022-09-16T02:37:36.750Z,96.10
2022-09-16T02:40:10.134Z,96.16
2022-09-16T02:42:36.883Z,96.56
2022-09-16T02:45:05.385Z,96.80
2022-09-16T02:47:50.828Z,96.58
2022-09-16T02:50:27.429Z,96.84
2022-09-16T02:53:04.457Z,97.13
2022-09-16T02:55:38.307Z,97.29
2022-09-16T02:58:06.559Z,97.61
2022-09-16T03:00:39.704Z,97.54
2022-09-16T03:03:06.645Z,97.82
2022-09-16T03:05:33.416Z,98.27
2022-09-16T03:08:04.003Z,98.23
2022-09-16T03:10:41.792Z,98.08
2022-09-16T03:13:39.724Z,98.49
2022-09-16T03:16:12.268Z,98.16
2022-09-16T03:18:58.403Z,98.54
2022-09-16T03:21:40.669Z,98.51
2022-09-16T03:24:14.714Z,98.61
2022-09-16T03:27:08.178Z,98.60
2022-09-16T03:29:48.513Z,98.69
2022-09-16T03:32:23.767Z,99.09
2022-09-16T03:35:21.988Z,99.12
2022-09-16T03:37:50.801Z,98.97
2022-09-16T03:40:19.665Z,99.01
2022-09-16T03:42:46.633Z,99.21
2022-09-16T03:45:16.649Z,99.18
2022-09-16T03:47:48.509Z,99.58
2022-09-16T03:50:16.054Z,99.58
2022-09-16T03:52:43.014Z,99.38
2022-09-16T03:55:13.679Z,100.00
2022-09-16T03:57:40.488Z,100.00
2022-09-16T04:00:08.704Z,100.00
2022-09-16T04:02:38.766Z,100.00
2022-09-16T04:05:06.125Z,100.00
2022-09-16T04:07:33.740Z,100.00
2022-09-16T04:10:01.940Z,100.00
2022-09-16T04:12:29.370Z,100.00
2022-09-16T04:14:56.272Z,100.00
2022-09-16T04:17:23.915Z,100.00
2022-09-16T04:19:51.533Z,100.00
2022-09-16T04:22:18.531Z,100.00
2022-09-16T04:24:45.388Z,100.00
2022-09-16T04:27:11.999Z,100.00
2022-09-16T04:29:38.819Z,100.00
2022-09-16T04:32:05.528Z,100.00
2022-09-16T04:34:32.599Z,100.00
2022-09-16T04:36:59.660Z,100.00
2022-09-16T04:39:26.413Z,100.00
2022-09-16T04:41:53.158Z,100.00
2022-09-16T04:44:19.946Z,100.00
2022-09-16T04:46:46.634Z,100.00
2022-09-16T04:49:13.476Z,100.00
2022-09-16T04:51:40.326Z,100.00
2022-09-16T04:54:07.955Z,100.00
2022-09-16T04:56:34.715Z,100.00
2022-09-16T04:59:03.797Z,99.81
2022-09-16T05:01:33.918Z,99.58
2022-09-16T05:04:03.714Z,98.65
2022-09-16T05:06:34.339Z,98.38
2022-09-16T05:09:01.496Z,98.19
2022-09-16T05:11:34.446Z,97.07
2022-09-16T05:14:03.341Z,95.71
2022-09-16T05:16:31.054Z,94.17
2022-09-16T05:18:59.972Z,94.09
2022-09-16T05:21:28.195Z,94.21
2022-09-16T05:23:56.125Z,95.01
2022-09-16T05:26:26.980Z,95.03
2022-09-16T05:28:54.210Z,94.36
2022-09-16T05:31:29.125Z,92.97
2022-09-16T05:33:56.720Z,92.57
2022-09-16T05:36:24.989Z,90.28
2022-09-16T05:39:11.449Z,88.93
2022-09-16T05:41:38.777Z,88.02
2022-09-16T05:44:06.815Z,87.09
2022-09-16T05:46:33.752Z,86.93
2022-09-16T05:49:00.674Z,87.45
2022-09-16T05:51:28.107Z,86.89
2022-09-16T05:53:55.643Z,87.04
2022-09-16T05:56:29.066Z,86.34
2022-09-16T05:58:58.511Z,84.85
2022-09-16T06:01:28.190Z,84.28
2022-09-16T06:03:55.686Z,83.33
2022-09-16T06:06:33.724Z,83.00
2022-09-16T06:09:06.188Z,81.63
2022-09-16T06:11:41.239Z,81.50
2022-09-16T06:14:08.876Z,81.27
2022-09-16T06:16:36.594Z,81.21
2022-09-16T06:19:10.598Z,80.80
2022-09-16T06:21:38.186Z,77.82
2022-09-16T06:24:09.161Z,73.57
2022-09-16T06:26:38.240Z,71.95
2022-09-16T06:29:08.390Z,71.14
2022-09-16T06:31:36.704Z,71.88
2022-09-16T06:34:04.339Z,72.91
2022-09-16T06:36:33.813Z,69.77
2022-09-16T06:39:00.773Z,68.90
2022-09-16T06:41:27.663Z,66.85
2022-09-16T06:43:54.740Z,67.38
2022-09-16T06:46:27.044Z,66.00
2022-09-16T06:48:58.491Z,64.52
2022-09-16T06:51:29.716Z,61.88
2022-09-16T06:54:01.477Z,59.87
2022-09-16T06:56:28.339Z,59.75
2022-09-16T06:58:58.509Z,58.99
2022-09-16T07:01:28.929Z,60.01
2022-09-16T07:03:58.342Z,60.96
2022-09-16T07:06:45.250Z,61.07
2022-09-16T07:09:15.054Z,62.35
2022-09-16T07:11:41.929Z,63.53
2022-09-16T07:14:09.602Z,63.55
2022-09-16T07:16:36.629Z,62.70
2022-09-16T07:19:03.890Z,61.61
2022-09-16T07:21:31.225Z,61.06
2022-09-16T07:24:00.094Z,59.82
2022-09-16T07:26:34.965Z,59.70
2022-09-16T07:29:04.157Z,59.06
2022-09-16T07:31:33.959Z,58.08
2022-09-16T07:34:04.918Z,55.10
2022-09-16T07:36:54.281Z,52.05
2022-09-16T07:39:21.394Z,49.43
2022-09-16T07:41:48.677Z,46.37
2022-09-16T07:44:18.370Z,42.68
2022-09-16T07:46:45.280Z,42.86
2022-09-16T07:49:14.918Z,42.55
2022-09-16T07:51:41.775Z,40.85
2022-09-16T07:54:10.929Z,41.12
2022-09-16T07:56:39.500Z,42.58
2022-09-16T07:59:12.973Z,42.05
2022-09-16T08:01:43.662Z,42.81
2022-09-16T08:04:10.768Z,43.41
2022-09-16T08:06:39.437Z,42.86
2022-09-16T08:09:27.353Z,41.66
2022-09-16T08:11:53.079Z,39.59
2022-09-16T08:14:19.817Z,37.69
2022-09-16T08:16:46.911Z,36.70
2022-09-16T08:19:13.984Z,36.62
2022-09-16T08:21:40.776Z,35.74
2022-09-16T08:24:07.459Z,34.56
2022-09-16T08:26:34.175Z,32.12
2022-09-16T08:29:09.859Z,33.02
2022-09-16T08:31:37.988Z,31.86
2022-09-16T08:34:05.770Z,32.27
2022-09-16T08:36:35.290Z,31.66
2022-09-16T08:39:02.148Z,31.69
2022-09-16T08:41:49.746Z,31.32
2022-09-16T08:44:38.908Z,30.77
2022-09-16T08:47:22.266Z,29.91
2022-09-16T08:49:51.368Z,29.13
2022-09-16T08:52:32.261Z,28.57
2022-09-16T08:55:24.084Z,28.91
2022-09-16T08:58:10.831Z,28.89
2022-09-16T09:00:38.475Z,28.77
2022-09-16T09:03:36.176Z,28.58
2022-09-16T09:06:12.140Z,27.65
2022-09-16T09:08:51.858Z,27.54
2022-09-16T09:11:28.490Z,27.60
2022-09-16T09:14:17.113Z,26.70
2022-09-16T09:16:44.369Z,27.81
2022-09-16T09:19:20.725Z,28.05
2022-09-16T09:21:56.443Z,28.34
2022-09-16T09:24:38.439Z,29.05
2022-09-16T09:27:15.367Z,29.24
2022-09-16T09:30:04.635Z,30.33
2022-09-16T09:32:59.252Z,30.41
2022-09-16T09:35:28.726Z,31.01
2022-09-16T09:38:08.042Z,31.38
2022-09-16T09:40:42.428Z,32.75
2022-09-16T09:43:21.055Z,34.54
2022-09-16T09:46:00.393Z,33.88
2022-09-16T09:48:37.485Z,35.75
2022-09-16T09:51:33.777Z,34.67
2022-09-16T09:54:12.400Z,33.93
2022-09-16T09:56:45.075Z,32.43
2022-09-16T09:59:33.542Z,31.79
2022-09-16T10:02:01.975Z,30.83
2022-09-16T10:04:39.245Z,29.09
2022-09-16T10:07:07.759Z,29.77
2022-09-16T10:09:36.056Z,28.87
2022-09-16T10:12:03.203Z,28.20
2022-09-16T10:14:36.362Z,27.33
2022-09-16T10:17:15.685Z,26.00
2022-09-16T10:19:56.677Z,26.84
2022-09-16T10:22:34.914Z,27.71
2022-09-16T10:25:24.534Z,28.46
2022-09-16T10:28:02.670Z,29.55
2022-09-16T10:30:32.952Z,29.30
2022-09-16T10:33:12.264Z,30.34
2022-09-16T10:35:42.166Z,31.13
2022-09-16T10:38:13.083Z,31.75
2022-09-16T10:40:52.463Z,31.79
2022-09-16T10:43:19.506Z,32.13
2022-09-16T10:45:49.263Z,32.40
2022-09-16T10:48:20.111Z,33.13
2022-09-16T10:50:55.142Z,33.26
2022-09-16T10:53:39.538Z,34.21
2022-09-16T10:56:21.603Z,33.86
2022-09-16T10:58:48.495Z,34.01
2022-09-16T11:01:35.406Z,32.25
2022-09-16T11:04:49.097Z,32.09
2022-09-16T11:07:28.471Z,31.88
2022-09-16T11:10:15.066Z,32.60
2022-09-16T11:13:11.625Z,33.11
2022-09-16T11:15:53.746Z,34.38
2022-09-16T11:19:11.725Z,34.69
2022-09-16T11:22:13.561Z,34.37
2022-09-16T11:25:04.743Z,35.20
2022-09-16T11:28:05.206Z,35.93
2022-09-16T11:30:57.302Z,35.62
2022-09-16T11:33:52.424Z,36.01
2022-09-16T11:36:49.779Z,35.68
2022-09-16T11:39:44.327Z,35.13
2022-09-16T11:42:21.886Z,34.97
2022-09-16T11:44:53.972Z,34.05
2022-09-16T11:47:40.752Z,33.40
2022-09-16T11:50:22.641Z,32.20
2022-09-16T11:52:49.402Z,31.75
2022-09-16T11:55:54.709Z,32.41
2022-09-16T11:58:38.757Z,32.29
2022-09-16T12:01:19.591Z,31.76
2022-09-16T12:03:56.536Z,32.29
2022-09-16T12:06:27.261Z,33.42
2022-09-16T12:09:07.656Z,32.25
2022-09-16T12:11:48.133Z,32.70
2022-09-16T12:14:44.257Z,32.61
2022-09-16T12:17:16.860Z,33.30
2022-09-16T12:19:52.593Z,33.88
2022-09-16T12:22:19.425Z,33.85
2022-09-16T12:24:55.379Z,34.14
2022-09-16T12:27:52.069Z,35.49
2022-09-16T12:30:25.445Z,35.99
2022-09-16T12:33:00.802Z,35.43
2022-09-16T12:35:33.297Z,35.14
2022-09-16T12:38:00.961Z,34.58
2022-09-16T12:40:33.240Z,33.71
2022-09-16T12:43:18.504Z,33.11
2022-09-16T12:46:08.591Z,33.91
2022-09-16T12:49:10.692Z,34.71
2022-09-16T12:52:12.997Z,35.89
2022-09-16T12:55:23.498Z,36.58
2022-09-16T12:58:22.173Z,37.08
2022-09-16T13:01:00.359Z,37.91
2022-09-16T13:03:31.617Z,38.26
2022-09-16T13:06:07.656Z,38.63
2022-09-16T13:08:35.678Z,38.70
2022-09-16T13:13:57.928Z,38.82
2022-09-16T13:16:52.678Z,38.41
2022-09-16T13:19:55.002Z,38.01
2022-09-16T13:22:59.965Z,38.65
2022-09-16T13:25:29.814Z,38.39
2022-09-16T13:28:02.679Z,37.65
2022-09-16T13:30:38.593Z,36.39
2022-09-16T13:33:11.428Z,35.67
2022-09-16T13:35:41.391Z,34.94
2022-09-16T13:38:39.029Z,34.79
2022-09-16T13:41:06.693Z,35.42
2022-09-16T13:43:42.301Z,35.62
2022-09-16T13:46:18.634Z,34.61
2022-09-16T13:49:03.646Z,35.05
2022-09-16T13:51:36.041Z,35.97
2022-09-16T13:54:04.879Z,36.06
2022-09-16T13:57:00.104Z,36.89
2022-09-16T13:59:45.761Z,37.56
2022-09-16T14:02:51.666Z,38.48
2022-09-16T14:05:28.806Z,39.00
2022-09-16T14:08:19.858Z,38.71
2022-09-16T14:11:07.015Z,37.35
2022-09-16T14:14:05.123Z,36.95
2022-09-16T14:16:34.898Z,37.28
2022-09-16T14:19:20.053Z,37.21
2022-09-16T14:21:47.092Z,37.26
2022-09-16T14:24:19.204Z,36.92
2022-09-16T14:26:53.846Z,37.33
2022-09-16T14:29:21.928Z,37.79
2022-09-16T14:31:49.695Z,37.89
2022-09-16T14:34:26.279Z,38.66
2022-09-16T14:36:53.759Z,39.88
2022-09-16T14:39:23.392Z,40.34
2022-09-16T14:41:59.160Z,41.52
2022-09-16T14:44:27.885Z,42.06
2022-09-16T14:47:09.122Z,42.35
2022-09-16T14:49:40.254Z,43.32
2022-09-16T14:52:20.707Z,43.84
2022-09-16T14:54:47.905Z,44.28
2022-09-16T14:57:20.709Z,44.29
2022-09-16T14:59:47.811Z,44.59
2022-09-16T15:02:35.736Z,44.03
2022-09-16T15:05:34.531Z,44.70
2022-09-16T15:08:24.906Z,45.31
2022-09-16T15:10:55.904Z,46.03
2022-09-16T15:13:35.524Z,46.66
2022-09-16T15:16:09.904Z,47.77
2022-09-16T15:18:38.707Z,48.85
2022-09-16T15:21:39.640Z,49.83
2022-09-16T15:24:17.963Z,50.63
2022-09-16T15:26:47.386Z,50.71
2022-09-16T15:29:29.884Z,50.91
2022-09-16T15:32:14.284Z,50.98
2022-09-16T15:34:43.917Z,50.90
2022-09-16T15:37:31.480Z,51.42
2022-09-16T15:40:35.708Z,52.18
2022-09-16T15:43:14.012Z,52.49
2022-09-16T15:45:43.074Z,52.92
2022-09-16T15:48:14.538Z,53.16
2022-09-16T15:50:49.362Z,53.37
2022-09-16T15:53:19.813Z,53.70
2022-09-16T15:55:49.218Z,53.91
2022-09-16T15:58:15.900Z,54.44
2022-09-16T16:00:59.529Z,55.21
2022-09-16T16:03:28.623Z,55.35
2022-09-16T16:05:55.507Z,55.98
2022-09-16T16:08:41.648Z,56.47
2022-09-16T16:11:12.407Z,57.06
2022-09-16T16:13:39.109Z,57.89
2022-09-16T16:16:08.193Z,58.23
2022-09-16T16:18:36.935Z,59.04
2022-09-16T16:21:08.782Z,59.78
2022-09-16T16:23:36.602Z,59.98
2022-09-16T16:26:05.786Z,61.02
2022-09-16T16:28:33.590Z,61.58
2022-09-16T16:31:15.759Z,62.11
2022-09-16T16:33:44.962Z,62.50
2022-09-16T16:36:16.865Z,63.93
2022-09-16T16:38:45.610Z,64.00
2022-09-16T16:41:13.589Z,64.79
2022-09-16T16:43:40.717Z,65.58
2022-09-16T16:46:07.618Z,66.38
2022-09-16T16:48:34.794Z,66.60
2022-09-16T16:51:05.316Z,67.31
2022-09-16T16:53:32.562Z,67.81
2022-09-16T16:56:11.284Z,68.22
2022-09-16T16:58:41.513Z,68.90
2022-09-16T17:01:10.469Z,69.55
2022-09-16T17:03:37.309Z,70.19
2022-09-16T17:06:04.307Z,71.04
2022-09-16T17:08:31.151Z,71.93
2022-09-16T17:11:13.290Z,73.58
2022-09-16T17:13:42.747Z,74.39
2022-09-16T17:16:11.535Z,76.08
2022-09-16T17:18:39.734Z,76.44
2022-09-16T17:21:16.731Z,77.17
2022-09-16T17:23:43.890Z,77.54
2022-09-16T17:26:11.523Z,77.68
2022-09-16T17:28:40.615Z,77.88
2022-09-16T17:31:15.903Z,77.82
2022-09-16T17:33:44.326Z,77.38
2022-09-16T17:36:13.048Z,77.50
2022-09-16T17:38:40.008Z,77.12
2022-09-16T17:41:08.929Z,77.14
2022-09-16T17:43:37.791Z,76.81
2022-09-16T17:46:07.069Z,76.20
2022-09-16T17:48:36.413Z,76.18
2022-09-16T17:51:03.645Z,76.20
2022-09-16T17:53:31.131Z,76.62
2022-09-16T17:56:10.155Z,76.73
2022-09-16T17:58:38.807Z,76.98
2022-09-16T18:01:05.904Z,77.04
2022-09-16T18:03:32.630Z,77.35
2022-09-16T18:06:20.697Z,78.22
2022-09-16T18:08:48.475Z,78.48
2022-09-16T18:11:16.365Z,78.78
2022-09-16T18:13:43.930Z,79.56
2022-09-16T18:16:13.685Z,79.46
2022-09-16T18:18:41.752Z,80.62
2022-09-16T18:21:12.223Z,80.72
2022-09-16T18:23:38.924Z,81.21
2022-09-16T18:26:07.823Z,81.42
2022-09-16T18:29:05.370Z,82.13
2022-09-16T18:31:26.546Z,82.53
2022-09-16T18:33:54.779Z,83.50
2022-09-16T18:36:25.348Z,83.58
2022-09-16T18:38:57.286Z,83.50
2022-09-16T18:41:27.067Z,83.94
2022-09-16T18:44:05.138Z,84.08
2022-09-16T18:46:33.546Z,84.35
2022-09-16T18:49:00.705Z,85.00
2022-09-16T18:51:33.251Z,85.94
2022-09-16T18:54:02.690Z,85.99
2022-09-16T18:56:32.184Z,87.04
2022-09-16T18:59:21.630Z,87.05
2022-09-16T19:01:51.292Z,86.88
2022-09-16T19:04:21.050Z,87.64
2022-09-16T19:06:50.880Z,90.21
2022-09-16T19:09:20.775Z,89.65
2022-09-16T19:11:47.807Z,89.06
2022-09-16T19:14:15.434Z,89.00
2022-09-16T19:16:45.479Z,89.33
2022-09-16T19:19:14.430Z,91.71
2022-09-16T19:21:42.401Z,93.67
2022-09-16T19:24:15.140Z,94.21
2022-09-16T19:26:43.356Z,93.67
2022-09-16T19:29:11.457Z,92.87
2022-09-16T19:31:40.973Z,94.08
2022-09-16T19:34:08.609Z,93.59
2022-09-16T19:36:36.210Z,93.17
2022-09-16T19:39:04.667Z,93.56
2022-09-16T19:41:33.443Z,93.59
2022-09-16T19:44:02.569Z,92.74
2022-09-16T19:46:32.609Z,93.08
2022-09-16T19:48:59.358Z,93.30
2022-09-16T19:51:26.707Z,92.66
2022-09-16T19:53:54.405Z,92.42
2022-09-16T19:56:24.741Z,93.31
2022-09-16T19:58:52.364Z,94.49
2022-09-16T20:01:20.265Z,93.66
2022-09-16T20:03:49.417Z,93.27
2022-09-16T20:06:18.621Z,92.16
2022-09-16T20:08:47.203Z,92.05
2022-09-16T20:11:19.477Z,91.83
2022-09-16T20:13:49.744Z,91.88
2022-09-16T20:16:42.063Z,92.61
2022-09-16T20:19:12.171Z,93.22
2022-09-16T20:21:39.432Z,93.40
2022-09-16T20:24:07.946Z,94.84
2022-09-16T20:26:35.609Z,95.87
2022-09-16T20:29:03.577Z,99.77
2022-09-16T20:31:33.208Z,98.58
2022-09-16T20:34:00.782Z,99.38
2022-09-16T20:36:30.572Z,99.65
2022-09-16T20:38:59.858Z,98.36
2022-09-16T20:41:29.554Z,97.13
2022-09-16T20:43:56.880Z,96.25
2022-09-16T20:46:28.775Z,96.55
2022-09-16T20:49:00.037Z,96.21
2022-09-16T20:51:29.478Z,96.09
2022-09-16T20:53:58.684Z,94.90
2022-09-16T20:56:26.904Z,95.33
2022-09-16T20:58:53.846Z,95.47
2022-09-16T21:01:26.461Z,95.34
2022-09-16T21:03:56.006Z,95.02
2022-09-16T21:06:24.441Z,94.83
2022-09-16T21:09:00.030Z,94.56
2022-09-16T21:11:29.847Z,94.16
2022-09-16T21:13:58.334Z,93.45
2022-09-16T21:16:27.006Z,93.22
2022-09-16T21:18:55.407Z,93.07
2022-09-16T21:21:24.553Z,93.39
2022-09-16T21:23:52.885Z,93.21
2022-09-16T21:26:21.062Z,93.31
2022-09-16T21:28:54.166Z,93.61
2022-09-16T21:31:20.988Z,93.78
2022-09-16T21:33:51.928Z,94.42
2022-09-16T21:36:20.731Z,95.00
2022-09-16T21:38:48.348Z,95.30
2022-09-16T21:41:18.801Z,96.43
2022-09-16T21:43:51.224Z,96.78
2022-09-16T21:46:20.717Z,97.44
2022-09-16T21:48:49.236Z,98.53
2022-09-16T21:51:18.594Z,98.98
2022-09-16T21:53:46.442Z,97.60
2022-09-16T21:56:21.450Z,97.46
2022-09-16T21:58:49.988Z,97.43
2022-09-16T22:01:22.773Z,97.67
2022-09-16T22:03:59.778Z,98.52
2022-09-16T22:06:27.520Z,98.73
2022-09-16T22:08:55.754Z,98.42
2022-09-16T22:11:24.504Z,97.64
2022-09-16T22:13:52.663Z,96.85
2022-09-16T22:16:27.178Z,97.01
2022-09-16T22:18:55.856Z,96.98
2022-09-16T22:21:24.323Z,98.20
2022-09-16T22:23:51.783Z,97.79
2022-09-16T22:26:20.652Z,97.75
2022-09-16T22:28:47.634Z,97.72
2022-09-16T22:31:20.953Z,97.47
2022-09-16T22:33:49.482Z,96.65
2022-09-16T22:36:27.753Z,96.40
2022-09-16T22:39:07.872Z,96.74
2022-09-16T22:41:34.948Z,96.21
2022-09-16T22:44:02.224Z,96.54
2022-09-16T22:46:32.078Z,95.71
2022-09-16T22:48:59.758Z,95.08
2022-09-16T22:51:28.170Z,95.45
2022-09-16T22:53:55.139Z,96.21
2022-09-16T22:56:25.105Z,96.67
2022-09-16T22:58:53.738Z,97.09
2022-09-16T23:01:25.877Z,95.78
2022-09-16T23:03:55.018Z,95.34
2022-09-16T23:06:23.808Z,94.73
2022-09-16T23:08:51.237Z,94.22
2022-09-16T23:11:23.260Z,94.04
2022-09-16T23:13:52.937Z,94.28
2022-09-16T23:16:26.264Z,94.55
2022-09-16T23:18:54.843Z,94.18
2022-09-16T23:21:22.451Z,94.47
2022-09-16T23:23:54.800Z,94.41
2022-09-16T23:26:26.230Z,93.75
2022-09-16T23:28:55.050Z,94.10
2022-09-16T23:31:27.438Z,93.87
2022-09-16T23:33:54.993Z,94.70
2022-09-16T23:36:22.425Z,95.53
2022-09-16T23:38:49.587Z,96.57
2022-09-16T23:41:19.773Z,96.94
2022-09-16T23:43:48.043Z,97.55
2022-09-16T23:46:17.578Z,98.02
2022-09-16T23:48:44.803Z,99.46
2022-09-16T23:51:12.938Z,100.00
2022-09-16T23:53:42.397Z,100.00
2022-09-16T23:56:11.984Z,100.00
2022-09-16T23:58:39.940Z,100.00
